Time;durP1;ratioP1;P1;durP2;ratioP2;P2;SDS_P1;SDS_P2;PMS_P1;PMS_P2;Temp;Humidity;BMP_temperature;BMP_pressure;BME280_temperature;BME280_humidity;BME280_pressure;Samples;Min_cycle;Max_cycle;Signal;HPM_P1;HPM_P2
2021/11/14 00:01:05;;;;;;;14.63;11.00;;;4.80;99.90;4.70;96825.00;;;;5045036;28;20232;-74
2021/11/14 00:04:22;;;;;;;19.80;12.03;;;4.80;99.90;4.70;96827.00;;;;5036383;28;20214;-74
2021/11/14 00:07:10;;;;;;;19.07;10.50;;;4.80;99.90;4.70;96821.00;;;;5038896;28;20196;-73
2021/11/14 00:09:59;;;;;;;13.03;9.73;;;4.80;99.90;4.70;96818.00;;;;5045236;28;20200;-74
2021/11/14 00:12:48;;;;;;;17.67;10.20;;;4.80;99.90;4.70;96827.00;;;;5043619;28;20553;-74
2021/11/14 00:15:39;;;;;;;13.13;9.30;;;4.80;99.90;4.70;96825.00;;;;5045885;28;20224;-73
2021/11/14 00:18:28;;;;;;;16.07;11.03;;;4.80;99.90;4.80;96818.00;;;;5045931;28;20668;-74
2021/11/14 00:21:19;;;;;;;13.67;9.87;;;4.80;99.90;4.70;96828.00;;;;5033297;28;20224;-74
2021/11/14 00:24:09;;;;;;;12.27;8.10;;;4.80;99.90;4.60;96823.00;;;;5043849;28;20655;-73
2021/11/14 00:26:58;;;;;;;14.80;8.17;;;4.80;99.90;4.60;96829.00;;;;5039467;28;20208;-73
2021/11/14 00:29:49;;;;;;;11.80;8.30;;;4.80;99.90;4.60;96830.00;;;;5029287;28;20193;-73
2021/11/14 00:32:39;;;;;;;13.10;8.53;;;4.80;99.90;4.70;96846.00;;;;5033348;28;20221;-73
2021/11/14 00:35:28;;;;;;;12.90;8.13;;;4.80;99.90;4.70;96846.00;;;;5033279;28;20243;-74
2021/11/14 00:38:17;;;;;;;12.67;6.83;;;4.80;99.90;4.70;96841.00;;;;5044370;28;20710;-73
2021/11/14 00:41:07;;;;;;;13.53;8.30;;;4.80;99.90;4.70;96842.00;;;;5045978;28;20307;-74
2021/11/14 00:43:56;;;;;;;11.57;8.47;;;3.80;99.90;4.70;96860.00;;;;5044232;28;20216;-73
2021/11/14 00:46:45;;;;;;;12.40;8.30;;;4.80;99.90;4.60;96851.00;;;;5037261;28;20200;-74
2021/11/14 00:49:37;;;;;;;11.20;8.10;;;4.70;99.90;4.50;96857.00;;;;5041678;28;20642;-74
2021/11/14 00:52:26;;;;;;;11.20;7.60;;;4.70;99.90;4.60;96857.00;;;;5034683;28;20221;-74
2021/11/14 00:55:18;;;;;;;9.20;6.83;;;4.70;99.90;4.60;96859.00;;;;5036370;28;20217;-74
2021/11/14 00:58:07;;;;;;;8.90;6.07;;;4.70;99.90;4.60;96856.00;;;;5033149;28;20223;-73
2021/11/14 01:00:56;;;;;;;11.17;6.63;;;4.70;99.90;4.60;96847.00;;;;5040323;28;20327;-74
2021/11/14 01:03:45;;;;;;;12.23;8.60;;;4.70;99.90;4.70;96855.00;;;;5038728;28;20201;-74
2021/11/14 01:06:35;;;;;;;16.37;9.60;;;4.70;99.90;4.70;96855.00;;;;5036664;28;20208;-74
2021/11/14 01:09:25;;;;;;;14.37;9.77;;;4.70;99.90;4.70;96859.00;;;;5030712;28;20207;-74
2021/11/14 01:12:14;;;;;;;28.23;11.33;;;4.80;99.90;4.80;96853.00;;;;5043601;28;20223;-74
2021/11/14 01:15:06;;;;;;;17.70;9.77;;;4.80;99.90;4.80;96856.00;;;;5044378;28;20228;-74
2021/11/14 01:17:56;;;;;;;21.33;11.27;;;4.80;99.90;4.80;96856.00;;;;5044806;28;20200;-74
2021/11/14 01:20:50;;;;;;;16.03;9.53;;;4.80;99.90;4.80;96856.00;;;;5043426;28;20225;-74
2021/11/14 01:23:41;;;;;;;16.87;10.47;;;4.80;99.90;4.80;96862.00;;;;5043941;28;20695;-74
2021/11/14 01:26:30;;;;;;;18.13;10.07;;;4.80;99.90;4.80;96850.00;;;;5042823;28;20288;-74
2021/11/14 01:29:19;;;;;;;18.10;11.30;;;4.90;99.90;4.80;96850.00;;;;5045723;28;20227;-74
2021/11/14 01:32:10;;;;;;;16.50;10.17;;;4.80;99.90;4.80;96853.00;;;;5033198;28;20217;-73
2021/11/14 01:34:58;;;;;;;16.20;9.77;;;4.90;99.90;4.80;96848.00;;;;5044483;28;20259;-74
2021/11/14 01:37:49;;;;;;;21.23;10.23;;;5.80;99.90;4.80;96851.00;;;;5043157;28;20201;-74
2021/11/14 01:40:44;;;;;;;20.23;10.90;;;4.90;99.90;4.80;96860.00;;;;5045012;28;20204;-74
2021/11/14 01:43:37;;;;;;;17.80;11.87;;;4.80;99.90;4.80;96853.00;;;;5042177;28;20197;-74
2021/11/14 01:46:26;;;;;;;16.07;11.07;;;4.80;99.90;4.70;96856.00;;;;5035259;28;20680;-73
2021/11/14 01:49:15;;;;;;;14.30;8.17;;;4.90;99.90;4.70;96855.00;;;;5028817;28;20605;-74
2021/11/14 01:52:21;;;;;;;18.30;9.43;;;4.80;99.90;4.70;96855.00;;;;5048976;28;20702;-74
2021/11/14 01:55:11;;;;;;;15.37;9.57;;;4.80;99.90;4.70;96849.00;;;;5045398;28;20228;-73
2021/11/14 01:58:03;;;;;;;19.33;8.90;;;4.80;99.90;4.70;96851.00;;;;5048735;28;20204;-73
2021/11/14 02:00:57;;;;;;;18.57;8.33;;;4.80;99.90;4.70;96850.00;;;;5046679;28;20231;-73
2021/11/14 02:03:50;;;;;;;14.40;8.97;;;4.80;99.90;4.70;96846.00;;;;5041252;28;20200;-73
2021/11/14 02:06:46;;;;;;;15.87;9.77;;;4.80;99.90;4.70;96847.00;;;;5038411;28;20302;-74
2021/11/14 02:09:35;;;;;;;17.57;8.40;;;4.80;99.90;4.70;96844.00;;;;5044579;28;20205;-74
2021/11/14 02:12:24;;;;;;;12.13;8.47;;;4.80;99.90;4.70;96848.00;;;;5044042;28;20236;-75
2021/11/14 02:15:15;;;;;;;13.23;9.03;;;4.80;99.90;4.60;96862.00;;;;5047818;28;20228;-74
2021/11/14 02:18:05;;;;;;;20.77;10.13;;;4.80;99.90;4.60;96851.00;;;;5048056;28;20668;-75
2021/11/14 02:20:56;;;;;;;14.50;8.97;;;4.80;99.90;4.60;96858.00;;;;5046694;28;20220;-74
2021/11/14 02:23:45;;;;;;;19.40;9.23;;;4.70;99.90;4.50;96856.00;;;;5046772;28;20205;-74
2021/11/14 02:26:34;;;;;;;13.03;9.03;;;4.70;99.90;4.50;96863.00;;;;5048599;28;20209;-74
2021/11/14 02:29:23;;;;;;;19.00;8.57;;;4.70;99.90;4.60;96864.00;;;;5037577;28;20672;-74
2021/11/14 02:32:12;;;;;;;16.53;10.03;;;4.70;99.90;4.60;96862.00;;;;5035722;28;20232;-75
2021/11/14 02:35:01;;;;;;;15.43;10.27;;;4.70;99.90;4.60;96861.00;;;;5048046;28;20613;-74
2021/11/14 02:37:52;;;;;;;17.60;9.90;;;4.70;99.90;4.60;96869.00;;;;5048100;28;20193;-74
2021/11/14 02:40:42;;;;;;;18.93;12.13;;;4.70;99.90;4.60;96864.00;;;;5048168;28;20224;-74
2021/11/14 02:43:31;;;;;;;23.83;10.67;;;4.70;99.90;4.70;96864.00;;;;5047277;28;20589;-74
2021/11/14 02:46:20;;;;;;;17.37;10.17;;;4.70;99.90;4.70;96863.00;;;;5042192;28;20212;-74
2021/11/14 02:49:10;;;;;;;18.00;11.10;;;4.70;99.90;4.70;96854.00;;;;5042987;28;20194;-74
2021/11/14 02:51:59;;;;;;;22.53;11.53;;;4.80;99.90;4.70;96853.00;;;;5036254;28;20225;-74
2021/11/14 02:54:49;;;;;;;20.20;10.27;;;4.80;99.90;4.70;96852.00;;;;5047273;28;20603;-74
2021/11/14 02:57:38;;;;;;;17.63;11.23;;;4.80;99.90;4.70;96862.00;;;;5045851;28;20212;-74
2021/11/14 03:00:32;;;;;;;20.33;10.80;;;4.80;99.90;4.70;96853.00;;;;5047661;28;20196;-74
2021/11/14 03:03:21;;;;;;;18.27;9.90;;;4.80;99.90;4.70;96867.00;;;;5047124;28;20258;-74
2021/11/14 03:06:10;;;;;;;19.70;9.10;;;4.80;99.90;4.60;96866.00;;;;5045737;28;20234;-74
2021/11/14 03:08:59;;;;;;;16.40;10.40;;;4.80;99.90;4.60;96865.00;;;;5045844;28;20200;-74
2021/11/14 03:11:49;;;;;;;16.73;10.53;;;4.80;99.90;4.70;96874.00;;;;5047144;28;20220;-74
2021/11/14 03:14:38;;;;;;;22.93;10.70;;;4.80;99.90;4.70;96871.00;;;;5046353;28;20574;-74
2021/11/14 03:17:28;;;;;;;18.33;10.10;;;4.80;99.90;4.70;96871.00;;;;5040879;28;20209;-74
2021/11/14 03:20:17;;;;;;;17.37;8.30;;;4.80;99.90;4.60;96884.00;;;;5036565;28;20553;-73
2021/11/14 03:23:06;;;;;;;15.00;8.23;;;4.80;99.90;4.60;96890.00;;;;5034223;28;20216;-74
2021/11/14 03:25:55;;;;;;;14.57;8.03;;;4.70;99.90;4.60;96880.00;;;;5038306;28;20209;-73
2021/11/14 03:28:46;;;;;;;13.03;8.13;;;4.70;99.90;4.60;96894.00;;;;5045456;28;20201;-73
2021/11/14 03:31:36;;;;;;;15.33;8.70;;;4.70;99.90;4.60;96887.00;;;;5033001;28;20224;-74
2021/11/14 03:34:24;;;;;;;12.33;8.27;;;4.70;99.90;4.60;96893.00;;;;5044909;28;20476;-74
2021/11/14 03:37:17;;;;;;;14.13;9.37;;;4.70;99.90;4.60;96903.00;;;;5034140;28;20228;-74
2021/11/14 03:40:08;;;;;;;11.20;7.97;;;4.70;99.90;4.50;96899.00;;;;5045871;28;20199;-73
2021/11/14 03:42:57;;;;;;;16.53;7.50;;;4.70;99.90;4.50;96907.00;;;;5046763;28;20204;-73
2021/11/14 03:45:48;;;;;;;13.47;8.23;;;4.70;99.90;4.50;96902.00;;;;5029961;28;20228;-73
2021/11/14 03:48:41;;;;;;;15.40;8.40;;;4.60;99.90;4.50;96909.00;;;;5034395;28;20201;-73
2021/11/14 03:51:30;;;;;;;13.00;8.03;;;4.60;99.90;4.30;96922.00;;;;5045676;28;20607;-74
2021/11/14 03:54:19;;;;;;;12.17;8.40;;;4.60;99.90;4.40;96913.00;;;;5045140;28;20211;-74
2021/11/14 03:57:08;;;;;;;13.50;7.50;;;4.60;99.90;4.30;96914.00;;;;5032814;28;20217;-74
2021/11/14 03:59:57;;;;;;;9.83;6.10;;;4.50;99.90;4.30;96919.00;;;;5033442;28;20209;-74
2021/11/14 04:02:50;;;;;;;11.67;6.83;;;4.50;99.90;4.30;96917.00;;;;5046232;28;20209;-73
2021/11/14 04:05:42;;;;;;;13.37;7.43;;;4.50;99.90;4.40;96922.00;;;;5045504;28;20242;-74
2021/11/14 04:08:31;;;;;;;14.03;8.20;;;4.50;99.90;4.40;96922.00;;;;5036291;28;20606;-73
2021/11/14 04:11:21;;;;;;;11.87;6.60;;;4.50;99.90;4.40;96927.00;;;;5033529;28;20227;-74
2021/11/14 04:14:10;;;;;;;12.33;8.00;;;4.50;99.90;4.40;96925.00;;;;5046063;28;20215;-74
2021/11/14 04:16:59;;;;;;;9.57;6.63;;;4.50;99.90;4.40;96931.00;;;;5032006;28;20224;-74
2021/11/14 04:19:49;;;;;;;12.43;7.43;;;4.50;99.90;4.30;96927.00;;;;5045222;28;20197;-73
2021/11/14 04:22:39;;;;;;;10.50;6.70;;;4.50;99.90;4.40;96930.00;;;;5044086;28;20228;-74
2021/11/14 04:25:28;;;;;;;17.93;7.03;;;4.50;99.90;4.40;96941.00;;;;5044151;28;20197;-74
2021/11/14 04:28:19;;;;;;;14.83;7.03;;;4.50;99.90;4.40;96941.00;;;;5044802;28;20235;-73
2021/11/14 04:31:08;;;;;;;11.10;6.33;;;4.50;99.90;4.40;96943.00;;;;5031836;28;20244;-74
2021/11/14 04:33:57;;;;;;;10.00;7.13;;;4.50;99.90;4.40;96941.00;;;;5032349;28;20212;-74
2021/11/14 04:36:47;;;;;;;14.10;6.97;;;4.90;99.90;4.30;96942.00;;;;5043576;28;20590;-73
2021/11/14 04:39:36;;;;;;;8.37;6.13;;;4.50;99.90;4.20;96941.00;;;;5045171;28;20216;-73
2021/11/14 04:42:25;;;;;;;11.00;6.53;;;4.50;99.90;4.30;96949.00;;;;5045456;28;20238;-73
2021/11/14 04:45:14;;;;;;;11.73;6.03;;;4.40;99.90;4.30;96943.00;;;;5041746;28;20276;-74
2021/11/14 04:48:04;;;;;;;10.43;7.70;;;4.40;99.90;4.20;96942.00;;;;5041184;28;20208;-73
2021/11/14 04:50:54;;;;;;;11.87;7.73;;;4.40;99.90;4.30;96944.00;;;;5038763;28;20225;-73
2021/11/14 04:53:45;;;;;;;12.77;6.97;;;4.40;99.90;4.20;96949.00;;;;5028613;28;20216;-73
2021/11/14 04:56:34;;;;;;;10.87;6.17;;;4.40;99.90;4.20;96945.00;;;;5043954;28;20247;-74
2021/11/14 04:59:23;;;;;;;10.83;6.80;;;4.40;99.90;4.20;96943.00;;;;5045690;28;20213;-74
2021/11/14 05:02:11;;;;;;;12.47;8.43;;;4.40;99.90;4.20;96941.00;;;;5045603;28;20220;-74
2021/11/14 05:05:00;;;;;;;14.30;7.80;;;4.40;99.90;4.20;96945.00;;;;5035894;28;20204;-74
2021/11/14 05:07:50;;;;;;;11.03;7.17;;;4.40;99.90;4.20;96940.00;;;;5043139;28;20810;-74
2021/11/14 05:10:43;;;;;;;15.13;8.23;;;4.40;99.90;4.20;96952.00;;;;5044474;28;20200;-74
2021/11/14 05:13:32;;;;;;;16.13;10.00;;;4.40;99.90;4.30;96931.00;;;;5040765;28;20392;-74
2021/11/14 05:16:21;;;;;;;14.17;8.37;;;4.40;99.90;4.40;96936.00;;;;5043927;28;20220;-74
2021/11/14 05:19:09;;;;;;;14.20;7.47;;;4.40;99.90;4.40;96931.00;;;;5043558;28;20208;-73
2021/11/14 05:21:58;;;;;;;14.50;7.93;;;4.40;99.90;4.40;96937.00;;;;5045993;28;20232;-73
2021/11/14 05:24:47;;;;;;;11.47;6.73;;;4.50;99.90;4.40;96935.00;;;;5048880;28;20201;-74
2021/11/14 05:27:38;;;;;;;13.97;8.67;;;5.40;99.90;4.40;96941.00;;;;5034387;28;20740;-74
2021/11/14 05:30:27;;;;;;;13.53;7.60;;;4.50;99.90;4.40;96958.00;;;;5041184;28;20201;-74
2021/11/14 05:33:17;;;;;;;16.70;7.97;;;4.50;99.90;4.40;96950.00;;;;5045150;28;20201;-76
2021/11/14 05:36:05;;;;;;;14.90;6.53;;;4.50;99.90;4.40;96963.00;;;;5048693;28;20219;-74
2021/11/14 05:38:55;;;;;;;15.43;6.80;;;4.50;99.90;4.40;96954.00;;;;5047462;28;20208;-75
2021/11/14 05:41:44;;;;;;;11.93;7.97;;;4.50;99.90;4.40;96968.00;;;;5050056;28;20604;-74
2021/11/14 05:44:34;;;;;;;9.70;7.17;;;4.50;99.90;4.40;96975.00;;;;5044881;28;20247;-74
2021/11/14 05:47:23;;;;;;;11.67;7.43;;;4.50;99.90;4.50;96967.00;;;;5046726;28;20204;-75
2021/11/14 05:50:12;;;;;;;13.13;7.10;;;4.50;99.90;4.50;96964.00;;;;5035801;28;20207;-74
2021/11/14 05:53:01;;;;;;;14.97;7.20;;;4.60;99.90;4.50;96974.00;;;;5048407;28;20196;-74
2021/11/14 05:55:50;;;;;;;11.60;7.43;;;4.60;99.90;4.40;96970.00;;;;5047606;28;20200;-74
2021/11/14 05:58:44;;;;;;;12.17;6.83;;;4.60;99.90;4.50;96973.00;;;;5046642;28;20520;-75
2021/11/14 06:01:39;;;;;;;12.73;8.10;;;4.60;99.90;4.50;96982.00;;;;5035518;28;20232;-74
2021/11/14 06:04:32;;;;;;;11.83;6.73;;;4.60;99.90;4.60;96989.00;;;;5047599;28;20208;-75
2021/11/14 06:07:21;;;;;;;10.23;6.60;;;4.60;99.90;4.60;96999.00;;;;5045981;28;20208;-74
2021/11/14 06:10:11;;;;;;;12.23;6.67;;;4.60;99.90;4.60;96999.00;;;;5048570;28;20201;-75
2021/11/14 06:13:01;;;;;;;9.93;6.17;;;4.70;99.90;4.60;96998.00;;;;5047932;28;20662;-74
2021/11/14 06:15:51;;;;;;;11.37;7.20;;;4.60;99.90;4.60;97010.00;;;;5041790;28;20448;-75
2021/11/14 06:18:41;;;;;;;13.47;7.90;;;4.70;99.90;4.60;97019.00;;;;5040361;28;20281;-74
2021/11/14 06:21:31;;;;;;;12.40;7.63;;;4.70;99.90;4.70;97018.00;;;;5046902;28;20378;-74
2021/11/14 06:24:20;;;;;;;9.60;6.70;;;4.70;99.90;4.70;97012.00;;;;5048879;28;20205;-74
2021/11/14 06:27:09;;;;;;;9.50;6.17;;;4.70;99.90;4.60;97025.00;;;;5047449;28;20204;-74
2021/11/14 06:29:58;;;;;;;9.40;6.43;;;4.70;99.90;4.70;97026.00;;;;5044074;28;20197;-74
2021/11/14 06:32:47;;;;;;;11.00;6.70;;;4.70;99.90;4.70;97019.00;;;;5039285;28;20208;-74
2021/11/14 06:35:37;;;;;;;7.83;5.43;;;4.70;99.90;4.50;97036.00;;;;5031913;28;20197;-74
2021/11/14 06:38:26;;;;;;;11.13;6.50;;;4.70;99.90;4.50;97019.00;;;;5045490;28;20220;-74
2021/11/14 06:41:15;;;;;;;8.97;5.50;;;4.70;99.90;4.50;97030.00;;;;5040921;28;20228;-75
2021/11/14 06:44:04;;;;;;;14.07;7.30;;;4.70;99.90;4.60;97034.00;;;;5045552;28;20197;-74
2021/11/14 06:46:55;;;;;;;11.00;6.23;;;4.70;99.90;4.70;97026.00;;;;5039255;28;20204;-74
2021/11/14 06:49:47;;;;;;;11.50;7.07;;;4.70;99.90;4.70;97038.00;;;;5046545;28;20205;-74
2021/11/14 06:52:37;;;;;;;11.20;6.67;;;4.70;99.90;4.80;97041.00;;;;5047168;28;20221;-74
2021/11/14 06:55:26;;;;;;;7.73;6.30;;;4.80;99.90;4.80;97037.00;;;;5045681;28;20211;-74
2021/11/14 06:58:15;;;;;;;15.33;7.73;;;4.80;99.90;4.90;97048.00;;;;5037317;28;20216;-74
2021/11/14 07:01:04;;;;;;;10.90;6.70;;;4.80;99.90;4.90;97050.00;;;;5033619;28;20228;-74
2021/11/14 07:03:52;;;;;;;8.17;5.17;;;4.80;99.90;4.90;97041.00;;;;5032752;28;20213;-74
2021/11/14 07:06:41;;;;;;;7.33;5.87;;;4.90;99.90;5.00;97050.00;;;;5037342;28;20590;-74
2021/11/14 07:09:32;;;;;;;8.03;5.53;;;4.90;99.90;5.00;97041.00;;;;5037574;28;20216;-74
2021/11/14 07:12:23;;;;;;;8.37;5.63;;;5.00;99.90;5.10;97055.00;;;;5035488;28;20221;-74
2021/11/14 07:15:14;;;;;;;7.77;5.57;;;5.00;99.90;5.10;97050.00;;;;5042308;28;20199;-74
2021/11/14 07:18:03;;;;;;;8.40;5.90;;;5.00;99.90;5.10;97052.00;;;;5047459;28;20247;-74
2021/11/14 07:20:52;;;;;;;9.90;5.27;;;5.10;99.90;5.10;97059.00;;;;5038344;28;20231;-74
2021/11/14 07:23:41;;;;;;;10.80;6.10;;;5.10;99.90;5.10;97051.00;;;;5046191;28;20216;-74
2021/11/14 07:26:32;;;;;;;8.60;5.57;;;5.10;99.90;5.20;97048.00;;;;5038813;28;20220;-75
2021/11/14 07:29:21;;;;;;;11.13;6.50;;;5.10;99.90;5.10;97053.00;;;;5034087;28;20583;-75
2021/11/14 07:32:10;;;;;;;9.07;5.80;;;5.20;99.90;5.20;97061.00;;;;5034636;28;20232;-75
2021/11/14 07:35:00;;;;;;;9.13;6.10;;;5.20;99.90;5.20;97057.00;;;;5046185;28;20288;-75
2021/11/14 07:37:49;;;;;;;9.00;6.43;;;5.20;99.90;5.30;97056.00;;;;5040421;28;20235;-74
2021/11/14 07:40:38;;;;;;;11.37;5.97;;;5.30;99.90;5.40;97055.00;;;;5045136;28;20208;-73
2021/11/14 07:43:29;;;;;;;9.07;6.70;;;5.30;99.90;5.40;97049.00;;;;5032169;28;20700;-74
2021/11/14 07:46:18;;;;;;;9.73;6.33;;;5.30;99.90;5.50;97058.00;;;;5043601;28;20209;-75
2021/11/14 07:49:06;;;;;;;8.87;6.53;;;5.40;99.90;5.40;97063.00;;;;5046903;28;20691;-75
2021/11/14 07:51:55;;;;;;;8.50;6.07;;;5.40;99.90;5.40;97058.00;;;;5037247;28;20232;-74
2021/11/14 07:54:44;;;;;;;8.23;6.27;;;5.40;99.90;5.50;97066.00;;;;5045646;28;20199;-75
2021/11/14 07:57:33;;;;;;;10.87;6.67;;;5.40;99.90;5.40;97062.00;;;;5046390;28;20301;-74
2021/11/14 08:00:27;;;;;;;8.50;6.17;;;5.50;99.90;5.40;97059.00;;;;5046121;28;20207;-76
2021/11/14 08:03:16;;;;;;;7.20;6.03;;;5.50;99.90;5.40;97061.00;;;;5045219;28;20722;-75
2021/11/14 08:06:05;;;;;;;8.80;7.00;;;5.50;99.90;5.70;97056.00;;;;5045590;28;20197;-76
2021/11/14 08:08:54;;;;;;;9.00;5.90;;;5.50;99.90;5.70;97059.00;;;;5046130;28;20208;-75
2021/11/14 08:11:42;;;;;;;9.13;5.87;;;5.60;99.90;5.80;97053.00;;;;5034021;28;20221;-74
2021/11/14 08:14:31;;;;;;;7.40;6.20;;;5.70;99.90;5.90;97060.00;;;;5034321;28;20205;-75
2021/11/14 08:17:22;;;;;;;10.50;6.17;;;5.70;99.90;6.00;97066.00;;;;5037545;28;20201;-76
2021/11/14 08:20:12;;;;;;;13.90;7.13;;;5.80;99.90;6.10;97056.00;;;;5043471;28;20201;-75
2021/11/14 08:23:01;;;;;;;9.43;6.37;;;5.90;99.90;6.20;97053.00;;;;5043679;28;20219;-75
2021/11/14 08:25:51;;;;;;;12.53;7.00;;;5.90;99.90;6.20;97054.00;;;;5029803;28;20566;-76
2021/11/14 08:28:40;;;;;;;8.07;6.00;;;6.00;99.90;6.30;97056.00;;;;5036756;28;20193;-75
2021/11/14 08:31:30;;;;;;;7.43;5.90;;;6.10;99.90;6.30;97067.00;;;;5029266;28;20228;-75
2021/11/14 08:34:20;;;;;;;7.40;5.13;;;6.10;99.90;6.40;97067.00;;;;5029991;28;20626;-76
2021/11/14 08:37:22;;;;;;;9.37;6.23;;;6.20;99.90;6.50;97068.00;;;;5028152;28;20209;-76
2021/11/14 08:40:13;;;;;;;9.20;6.00;;;7.30;99.90;6.40;97067.00;;;;5028178;28;20208;-76
2021/11/14 08:43:05;;;;;;;6.93;5.50;;;6.30;99.90;6.20;97080.00;;;;5046991;28;20204;-76
2021/11/14 08:45:53;;;;;;;7.90;6.30;;;6.30;99.90;6.10;97075.00;;;;5035107;28;20669;-76
2021/11/14 08:48:43;;;;;;;7.27;6.30;;;6.30;99.90;6.20;97068.00;;;;5044769;28;20209;-73
2021/11/14 08:51:34;;;;;;;8.93;5.77;;;6.30;99.90;6.40;97078.00;;;;5044619;28;20224;-75
2021/11/14 08:54:24;;;;;;;6.07;4.90;;;6.30;99.90;6.50;97075.00;;;;5045849;28;20197;-82
2021/11/14 08:57:17;;;;;;;9.90;5.67;;;6.40;99.90;6.60;97082.00;;;;5042942;28;20581;-77
2021/11/14 09:00:08;;;;;;;8.30;4.23;;;6.40;99.90;6.60;97079.00;;;;5026668;28;20711;-77
2021/11/14 09:02:59;;;;;;;5.47;4.97;;;6.50;99.90;6.80;97090.00;;;;5030688;28;20222;-76
2021/11/14 09:05:48;;;;;;;8.43;6.13;;;6.60;99.90;6.90;97091.00;;;;5038083;28;20211;-76
2021/11/14 09:08:38;;;;;;;7.33;5.73;;;6.70;99.90;6.90;97095.00;;;;5037560;28;20739;-75
2021/11/14 09:11:27;;;;;;;7.83;6.40;;;6.70;99.90;7.10;97099.00;;;;5026737;28;20222;-76
2021/11/14 09:14:18;;;;;;;6.63;5.47;;;6.80;99.90;7.10;97101.00;;;;5037597;28;20200;-76
2021/11/14 09:17:07;;;;;;;7.80;5.83;;;6.90;99.90;7.20;97094.00;;;;5032979;28;20209;-78
2021/11/14 09:19:56;;;;;;;6.50;5.20;;;6.90;99.90;7.40;97087.00;;;;5022801;28;20217;-75
2021/11/14 09:22:47;;;;;;;7.03;5.53;;;7.00;99.90;7.40;97093.00;;;;5024444;28;20236;-75
2021/11/14 09:25:40;;;;;;;9.37;5.60;;;7.10;99.90;7.50;97090.00;;;;5032053;28;20678;-76
2021/11/14 09:28:32;;;;;;;6.80;5.30;;;7.20;99.90;7.60;97097.00;;;;5027010;28;20752;-75
2021/11/14 09:31:21;;;;;;;8.20;6.67;;;7.20;99.90;7.50;97100.00;;;;5025021;28;21102;-74
2021/11/14 09:34:12;;;;;;;7.30;6.03;;;7.30;99.90;7.50;97095.00;;;;5037180;28;20201;-74
2021/11/14 09:37:02;;;;;;;8.97;7.00;;;7.30;99.90;7.50;97092.00;;;;5036694;28;20448;-76
2021/11/14 09:39:51;;;;;;;10.87;6.80;;;7.30;99.90;7.50;97099.00;;;;5018700;28;20222;-76
2021/11/14 09:42:43;;;;;;;7.97;5.67;;;7.30;99.90;7.60;97102.00;;;;5021577;28;20709;-76
2021/11/14 09:45:36;;;;;;;10.67;6.37;;;7.40;99.90;7.50;97103.00;;;;5040865;28;20298;-77
2021/11/14 09:48:25;;;;;;;7.13;5.57;;;7.40;99.90;7.50;97097.00;;;;5043506;28;20200;-77
2021/11/14 09:51:14;;;;;;;8.13;5.90;;;7.40;99.90;7.50;97093.00;;;;5039652;28;20209;-77
2021/11/14 09:54:08;;;;;;;8.70;7.00;;;7.40;99.90;7.50;97093.00;;;;5024788;28;20233;-76
2021/11/14 09:56:57;;;;;;;9.70;6.97;;;7.40;99.90;7.60;97086.00;;;;5024284;28;20216;-76
2021/11/14 09:59:48;;;;;;;8.43;6.40;;;7.40;99.90;7.60;97095.00;;;;5022433;28;20225;-76
2021/11/14 10:02:37;;;;;;;12.40;6.73;;;7.40;99.90;7.60;97093.00;;;;5030409;28;20236;-75
2021/11/14 10:05:27;;;;;;;9.23;7.00;;;7.40;99.90;7.70;97098.00;;;;5026121;28;20619;-75
2021/11/14 10:08:20;;;;;;;7.40;6.07;;;7.50;99.90;7.80;97093.00;;;;5027003;28;20197;-75
2021/11/14 10:11:09;;;;;;;9.17;6.43;;;7.50;99.90;7.80;97094.00;;;;5036535;28;20220;-76
2021/11/14 10:14:01;;;;;;;9.27;7.17;;;7.50;99.90;7.60;97096.00;;;;5042823;28;20204;-76
2021/11/14 10:16:51;;;;;;;8.63;6.73;;;7.50;99.90;7.60;97097.00;;;;5033350;28;20442;-76
2021/11/14 10:19:40;;;;;;;9.80;7.33;;;7.50;99.90;7.40;97101.00;;;;5040301;28;20223;-77
2021/11/14 10:22:29;;;;;;;8.67;7.03;;;7.50;99.90;7.50;97107.00;;;;5040700;28;20654;-77
2021/11/14 10:25:18;;;;;;;12.30;6.83;;;7.50;99.90;7.40;97099.00;;;;5047916;28;20197;-76
2021/11/14 10:28:08;;;;;;;10.93;7.87;;;7.40;99.90;7.50;97097.00;;;;5045511;28;20656;-77
2021/11/14 10:30:58;;;;;;;8.60;6.57;;;7.40;99.90;7.50;97096.00;;;;5027921;28;20249;-78
2021/11/14 10:33:49;;;;;;;13.00;7.33;;;7.40;99.90;7.60;97094.00;;;;5030377;28;20201;-77
2021/11/14 10:36:38;;;;;;;9.20;7.73;;;7.40;99.90;7.70;97106.00;;;;5037415;28;20204;-77
2021/11/14 10:39:37;;;;;;;10.10;6.93;;;7.40;99.90;7.50;97105.00;;;;5045549;28;20224;-76
2021/11/14 10:42:33;;;;;;;11.17;7.40;;;7.40;99.90;7.50;97108.00;;;;5047391;28;20258;-77
2021/11/14 10:45:22;;;;;;;18.27;9.23;;;7.40;99.90;7.50;97111.00;;;;5030026;28;20198;-77
2021/11/14 10:48:16;;;;;;;15.20;8.67;;;7.40;99.90;7.50;97111.00;;;;5036419;28;20197;-77
2021/11/14 10:51:11;;;;;;;18.83;9.13;;;7.40;99.90;7.50;97107.00;;;;5035691;28;20232;-79
2021/11/14 10:54:01;;;;;;;20.90;9.10;;;7.40;99.90;7.40;97112.00;;;;5039575;28;20209;-77
2021/11/14 10:57:01;;;;;;;16.53;9.67;;;7.40;99.90;7.30;97110.00;;;;5045290;28;20925;-78
2021/11/14 10:59:51;;;;;;;16.73;8.30;;;7.30;99.90;7.20;97111.00;;;;5035126;28;20819;-77
2021/11/14 11:02:42;;;;;;;18.33;7.87;;;7.30;99.90;7.20;97112.00;;;;5038385;28;20229;-77
2021/11/14 11:05:32;;;;;;;11.37;8.47;;;7.20;99.90;7.20;97109.00;;;;5034845;28;20213;-77
2021/11/14 11:08:23;;;;;;;9.53;7.40;;;7.20;99.90;7.40;97103.00;;;;5040474;28;20205;-77
2021/11/14 11:11:12;;;;;;;12.33;7.23;;;7.20;99.90;7.50;97107.00;;;;5026809;28;20221;-77
2021/11/14 11:14:01;;;;;;;9.90;6.80;;;7.20;99.90;7.50;97103.00;;;;5035000;28;20209;-77
2021/11/14 11:16:50;;;;;;;9.40;6.83;;;7.30;99.90;7.20;97100.00;;;;5028937;28;20206;-76
2021/11/14 11:19:39;;;;;;;15.93;6.83;;;7.30;99.90;7.30;97112.00;;;;5023132;28;20248;-77
2021/11/14 11:22:28;;;;;;;12.87;7.60;;;7.30;99.90;7.30;97104.00;;;;5031175;28;20235;-77
2021/11/14 11:25:37;;;;;;;11.90;7.63;;;7.30;99.90;7.20;97106.00;;;;5040767;28;20196;-77
2021/11/14 11:28:29;;;;;;;8.93;8.00;;;7.20;99.90;7.30;97095.00;;;;5033065;28;20209;-76
2021/11/14 11:31:22;;;;;;;14.00;9.20;;;7.20;99.90;7.30;97097.00;;;;5032525;28;20225;-75
2021/11/14 11:34:11;;;;;;;14.53;9.97;;;7.20;99.90;7.50;97104.00;;;;5045967;28;20201;-76
2021/11/14 11:37:00;;;;;;;19.13;10.63;;;7.30;99.90;7.40;97103.00;;;;5026124;28;20212;-75
2021/11/14 11:39:49;;;;;;;13.43;9.83;;;7.30;99.90;7.40;97099.00;;;;5046817;28;20239;-76
2021/11/14 11:42:40;;;;;;;14.70;10.43;;;7.30;99.90;7.50;97111.00;;;;5046207;28;20430;-75
2021/11/14 11:45:32;;;;;;;9.03;8.10;;;7.30;99.90;7.60;97116.00;;;;5045947;28;20572;-75
2021/11/14 11:48:25;;;;;;;10.10;8.40;;;7.30;99.90;7.50;97110.00;;;;5036683;28;20205;-75
2021/11/14 11:51:18;;;;;;;10.13;7.57;;;7.40;99.90;7.60;97098.00;;;;5044272;28;20212;-74
2021/11/14 11:54:13;;;;;;;10.63;8.93;;;7.40;99.90;7.50;97101.00;;;;5044782;28;20204;-75
2021/11/14 11:57:09;;;;;;;11.70;8.27;;;7.40;99.90;7.50;97099.00;;;;5030786;28;20497;-75
2021/11/14 12:00:05;;;;;;;17.37;10.90;;;7.40;99.90;7.30;97089.00;;;;5028571;28;20220;-74
2021/11/14 12:02:54;;;;;;;17.70;11.30;;;7.40;99.90;7.30;97092.00;;;;5046310;28;20201;-74
2021/11/14 12:05:47;;;;;;;19.17;12.17;;;7.40;99.90;7.30;97098.00;;;;5045227;28;20607;-74
2021/11/14 12:08:45;;;;;;;15.53;10.63;;;7.40;99.90;6.90;97083.00;;;;5041225;28;20204;-74
2021/11/14 12:11:38;;;;;;;19.97;12.20;;;7.30;99.90;7.10;97092.00;;;;5027030;28;20232;-75
2021/11/14 12:14:30;;;;;;;18.83;14.87;;;7.30;99.90;7.30;97092.00;;;;5046300;28;20197;-76
2021/11/14 12:17:26;;;;;;;15.87;11.13;;;7.30;99.90;7.10;97088.00;;;;5043379;28;20189;-75
2021/11/14 12:20:16;;;;;;;15.53;12.20;;;7.30;99.90;7.10;97081.00;;;;5045850;28;20221;-74
2021/11/14 12:23:19;;;;;;;12.10;9.33;;;7.30;99.90;7.20;97085.00;;;;5042636;28;20609;-76
2021/11/14 12:26:10;;;;;;;17.23;10.67;;;7.20;99.90;6.90;97079.00;;;;5038819;28;20204;-75
2021/11/14 12:29:04;;;;;;;14.27;9.43;;;7.20;99.90;7.20;97078.00;;;;5027855;28;20215;-73
2021/11/14 12:31:55;;;;;;;11.10;9.20;;;7.20;99.90;7.30;97081.00;;;;5027631;28;20779;-76
2021/11/14 12:34:48;;;;;;;11.87;8.80;;;7.20;99.90;7.30;97090.00;;;;5037840;28;20204;-77
2021/11/14 12:37:47;;;;;;;11.17;9.40;;;7.30;99.90;7.10;97092.00;;;;5043244;28;20581;-76
2021/11/14 12:40:41;;;;;;;12.23;8.27;;;7.30;99.90;7.30;97095.00;;;;5039723;28;20224;-76
2021/11/14 12:43:33;;;;;;;11.57;9.20;;;7.30;99.90;7.50;97097.00;;;;5044919;28;20699;-75
2021/11/14 12:46:27;;;;;;;11.73;8.87;;;7.30;99.90;7.70;97100.00;;;;5044721;28;20212;-75